sensor_id;sensor_type;location;lat;lon;timestamp;pressure;altitude;pressure_sealevel;temperature;humidity
62697;BME280;48761;42.680;23.312;2023-07-13T00:01:30;95073.44;;;26.20;50.04
62697;BME280;48761;42.680;23.312;2023-07-13T00:03:56;95078.97;;;26.34;49.30
62697;BME280;48761;42.680;23.312;2023-07-13T00:06:22;95079.28;;;26.17;49.91
62697;BME280;48761;42.680;23.312;2023-07-13T00:08:48;95071.69;;;26.05;49.56
62697;BME280;48761;42.680;23.312;2023-07-13T00:11:16;95059.53;;;26.01;49.96
62697;BME280;48761;42.680;23.312;2023-07-13T00:13:42;95066.59;;;25.89;50.34
62697;BME280;48761;42.680;23.312;2023-07-13T00:16:10;95078.16;;;26.04;50.28
62697;BME280;48761;42.680;23.312;2023-07-13T00:18:36;95070.63;;;26.06;50.43
62697;BME280;48761;42.680;23.312;2023-07-13T00:21:02;95052.41;;;26.00;50.36
62697;BME280;48761;42.680;23.312;2023-07-13T00:23:28;95071.66;;;25.99;50.78
62697;BME280;48761;42.680;23.312;2023-07-13T00:25:54;95068.88;;;25.63;51.63
62697;BME280;48761;42.680;23.312;2023-07-13T00:28:20;95075.28;;;25.77;51.73
62697;BME280;48761;42.680;23.312;2023-07-13T00:30:47;95052.94;;;25.60;52.52
62697;BME280;48761;42.680;23.312;2023-07-13T00:33:13;95065.28;;;25.84;52.36
62697;BME280;48761;42.680;23.312;2023-07-13T00:35:38;95073.66;;;25.83;52.69
62697;BME280;48761;42.680;23.312;2023-07-13T00:38:05;95025.38;;;25.70;52.55
62697;BME280;48761;42.680;23.312;2023-07-13T00:40:31;95049.53;;;25.80;52.42
62697;BME280;48761;42.680;23.312;2023-07-13T00:42:58;95063.19;;;25.86;52.59
62697;BME280;48761;42.680;23.312;2023-07-13T00:47:50;95062.31;;;25.79;53.05
62697;BME280;48761;42.680;23.312;2023-07-13T00:50:16;95064.13;;;25.72;53.25
62697;BME280;48761;42.680;23.312;2023-07-13T00:52:47;95068.38;;;25.52;54.14
62697;BME280;48761;42.680;23.312;2023-07-13T00:55:14;95059.63;;;25.57;54.14
62697;BME280;48761;42.680;23.312;2023-07-13T00:57:42;95062.25;;;25.72;53.42
62697;BME280;48761;42.680;23.312;2023-07-13T01:00:09;95062.44;;;25.71;53.46
62697;BME280;48761;42.680;23.312;2023-07-13T01:02:38;95065.06;;;25.57;53.35
62697;BME280;48761;42.680;23.312;2023-07-13T01:05:16;95061.75;;;25.62;53.47
62697;BME280;48761;42.680;23.312;2023-07-13T01:07:43;95055.88;;;25.58;53.66
62697;BME280;48761;42.680;23.312;2023-07-13T01:10:13;95058.41;;;25.67;53.83
62697;BME280;48761;42.680;23.312;2023-07-13T01:12:40;95057.50;;;25.52;53.83
62697;BME280;48761;42.680;23.312;2023-07-13T01:15:36;95031.31;;;25.23;54.34
62697;BME280;48761;42.680;23.312;2023-07-13T01:18:03;95010.44;;;25.08;54.42
62697;BME280;48761;42.680;23.312;2023-07-13T01:20:29;95061.06;;;25.31;54.55
62697;BME280;48761;42.680;23.312;2023-07-13T01:22:58;95012.19;;;25.16;55.07
62697;BME280;48761;42.680;23.312;2023-07-13T01:25:26;95028.72;;;25.14;54.95
62697;BME280;48761;42.680;23.312;2023-07-13T01:27:52;95048.72;;;25.57;54.51
62697;BME280;48761;42.680;23.312;2023-07-13T01:30:18;95041.94;;;25.17;54.94
62697;BME280;48761;42.680;23.312;2023-07-13T01:32:44;95053.16;;;25.36;55.08
62697;BME280;48761;42.680;23.312;2023-07-13T01:35:10;95043.59;;;25.18;55.10
62697;BME280;48761;42.680;23.312;2023-07-13T01:37:36;95051.63;;;25.27;55.02
62697;BME280;48761;42.680;23.312;2023-07-13T01:40:03;95053.97;;;25.30;55.41
62697;BME280;48761;42.680;23.312;2023-07-13T01:42:30;95050.66;;;25.35;55.11
62697;BME280;48761;42.680;23.312;2023-07-13T01:44:56;95046.47;;;25.10;55.76
62697;BME280;48761;42.680;23.312;2023-07-13T01:47:22;95042.31;;;25.14;55.68
62697;BME280;48761;42.680;23.312;2023-07-13T01:49:48;95031.81;;;25.11;55.50
62697;BME280;48761;42.680;23.312;2023-07-13T01:52:14;95050.47;;;25.14;55.92
62697;BME280;48761;42.680;23.312;2023-07-13T01:54:40;95047.72;;;24.92;56.48
62697;BME280;48761;42.680;23.312;2023-07-13T01:57:06;95042.53;;;25.13;56.62
62697;BME280;48761;42.680;23.312;2023-07-13T01:59:32;95047.97;;;25.13;56.56
62697;BME280;48761;42.680;23.312;2023-07-13T02:01:59;95048.38;;;24.94;56.90
62697;BME280;48761;42.680;23.312;2023-07-13T02:04:25;95057.09;;;25.05;56.77
62697;BME280;48761;42.680;23.312;2023-07-13T02:06:51;95053.06;;;25.01;56.74
62697;BME280;48761;42.680;23.312;2023-07-13T02:09:17;95047.13;;;25.12;56.54
62697;BME280;48761;42.680;23.312;2023-07-13T02:11:42;95054.94;;;25.00;57.16
62697;BME280;48761;42.680;23.312;2023-07-13T02:14:08;95031.81;;;24.89;57.01
62697;BME280;48761;42.680;23.312;2023-07-13T02:16:34;95053.16;;;24.92;57.31
62697;BME280;48761;42.680;23.312;2023-07-13T02:19:00;95054.13;;;24.84;57.75
62697;BME280;48761;42.680;23.312;2023-07-13T02:21:26;95051.38;;;24.62;59.00
62697;BME280;48761;42.680;23.312;2023-07-13T02:23:52;95056.44;;;24.88;58.28
62697;BME280;48761;42.680;23.312;2023-07-13T02:26:18;95063.50;;;24.82;58.97
62697;BME280;48761;42.680;23.312;2023-07-13T02:28:45;95059.56;;;24.02;61.58
62697;BME280;48761;42.680;23.312;2023-07-13T02:31:14;95073.97;;;24.02;62.47
62697;BME280;48761;42.680;23.312;2023-07-13T02:33:40;95039.81;;;24.23;61.38
62697;BME280;48761;42.680;23.312;2023-07-13T02:36:07;95069.03;;;24.51;60.43
62697;BME280;48761;42.680;23.312;2023-07-13T02:38:33;95068.88;;;24.60;59.96
62697;BME280;48761;42.680;23.312;2023-07-13T02:41:00;95021.66;;;24.39;59.38
62697;BME280;48761;42.680;23.312;2023-07-13T02:43:25;95059.56;;;24.47;60.03
62697;BME280;48761;42.680;23.312;2023-07-13T02:45:51;95033.25;;;24.33;60.02
62697;BME280;48761;42.680;23.312;2023-07-13T02:48:17;95056.34;;;24.59;59.75
62697;BME280;48761;42.680;23.312;2023-07-13T02:50:46;95066.19;;;24.60;59.74
62697;BME280;48761;42.680;23.312;2023-07-13T02:53:12;95067.16;;;24.52;60.09
62697;BME280;48761;42.680;23.312;2023-07-13T02:55:38;95061.97;;;24.57;59.71
62697;BME280;48761;42.680;23.312;2023-07-13T02:58:04;95059.56;;;24.47;59.89
62697;BME280;48761;42.680;23.312;2023-07-13T03:00:29;95044.03;;;24.11;61.01
62697;BME280;48761;42.680;23.312;2023-07-13T03:02:56;95078.03;;;24.37;60.76
62697;BME280;48761;42.680;23.312;2023-07-13T03:05:21;95070.63;;;24.15;61.63
62697;BME280;48761;42.680;23.312;2023-07-13T03:07:47;95077.34;;;24.04;62.37
62697;BME280;48761;42.680;23.312;2023-07-13T03:10:13;95077.34;;;23.89;63.44
62697;BME280;48761;42.680;23.312;2023-07-13T03:12:39;95077.81;;;23.93;63.21
62697;BME280;48761;42.680;23.312;2023-07-13T03:15:05;95063.69;;;23.82;63.79
62697;BME280;48761;42.680;23.312;2023-07-13T03:17:31;95079.41;;;24.17;62.98
62697;BME280;48761;42.680;23.312;2023-07-13T03:19:57;95066.13;;;24.38;62.09
62697;BME280;48761;42.680;23.312;2023-07-13T03:22:23;95076.34;;;24.36;62.47
62697;BME280;48761;42.680;23.312;2023-07-13T03:24:49;95080.19;;;24.79;61.51
62697;BME280;48761;42.680;23.312;2023-07-13T03:27:16;95072.19;;;24.92;60.84
62697;BME280;48761;42.680;23.312;2023-07-13T03:29:43;95073.88;;;24.93;60.51
62697;BME280;48761;42.680;23.312;2023-07-13T03:32:09;95084.66;;;25.02;60.50
62697;BME280;48761;42.680;23.312;2023-07-13T03:34:35;95085.75;;;25.29;60.07
62697;BME280;48761;42.680;23.312;2023-07-13T03:37:00;95088.13;;;25.39;59.66
62697;BME280;48761;42.680;23.312;2023-07-13T03:39:26;95086.38;;;25.53;58.99
62697;BME280;48761;42.680;23.312;2023-07-13T03:41:52;95088.34;;;25.67;58.46
62697;BME280;48761;42.680;23.312;2023-07-13T03:44:19;95090.81;;;25.61;58.83
62697;BME280;48761;42.680;23.312;2023-07-13T03:46:45;95093.78;;;25.67;58.81
62697;BME280;48761;42.680;23.312;2023-07-13T03:49:11;95097.50;;;25.81;58.44
62697;BME280;48761;42.680;23.312;2023-07-13T03:51:37;95096.00;;;25.56;58.54
62697;BME280;48761;42.680;23.312;2023-07-13T03:54:03;95092.88;;;25.52;59.02
62697;BME280;48761;42.680;23.312;2023-07-13T03:56:29;95096.91;;;25.85;57.80
62697;BME280;48761;42.680;23.312;2023-07-13T03:58:56;95077.75;;;26.01;57.32
62697;BME280;48761;42.680;23.312;2023-07-13T04:01:23;95077.63;;;26.16;56.84
62697;BME280;48761;42.680;23.312;2023-07-13T04:03:50;95093.16;;;26.22;56.59
62697;BME280;48761;42.680;23.312;2023-07-13T04:06:25;95078.75;;;26.35;56.09
62697;BME280;48761;42.680;23.312;2023-07-13T04:08:54;95080.75;;;26.48;55.57
62697;BME280;48761;42.680;23.312;2023-07-13T04:11:23;95080.00;;;26.33;56.25
62697;BME280;48761;42.680;23.312;2023-07-13T04:14:51;95039.66;;;26.50;55.58
62697;BME280;48761;42.680;23.312;2023-07-13T04:20:30;95045.56;;;26.60;54.72
62697;BME280;48761;42.680;23.312;2023-07-13T04:23:11;95065.31;;;26.69;54.68
62697;BME280;48761;42.680;23.312;2023-07-13T04:25:46;95044.72;;;26.60;55.33
62697;BME280;48761;42.680;23.312;2023-07-13T04:28:13;95064.63;;;26.53;55.98
62697;BME280;48761;42.680;23.312;2023-07-13T04:33:27;95103.56;;;26.96;55.25
62697;BME280;48761;42.680;23.312;2023-07-13T04:54:52;95116.13;;;28.81;50.06
62697;BME280;48761;42.680;23.312;2023-07-13T05:00:47;95104.34;;;26.83;53.83
62697;BME280;48761;42.680;23.312;2023-07-13T05:03:13;95091.75;;;27.93;51.87
62697;BME280;48761;42.680;23.312;2023-07-13T05:05:39;95123.44;;;28.07;50.55
62697;BME280;48761;42.680;23.312;2023-07-13T05:08:14;95120.06;;;28.12;51.06
62697;BME280;48761;42.680;23.312;2023-07-13T05:10:40;95115.44;;;28.13;50.34
62697;BME280;48761;42.680;23.312;2023-07-13T05:13:19;95105.78;;;28.17;49.71
62697;BME280;48761;42.680;23.312;2023-07-13T05:16:27;95093.19;;;28.02;49.69
62697;BME280;48761;42.680;23.312;2023-07-13T05:18:57;95083.31;;;27.33;51.60
62697;BME280;48761;42.680;23.312;2023-07-13T05:21:25;95136.56;;;29.57;47.29
62697;BME280;48761;42.680;23.312;2023-07-13T05:23:51;95108.22;;;29.45;47.19
62697;BME280;48761;42.680;23.312;2023-07-13T05:26:21;95113.03;;;29.82;46.67
62697;BME280;48761;42.680;23.312;2023-07-13T05:28:47;95126.97;;;29.08;47.83
62697;BME280;48761;42.680;23.312;2023-07-13T05:31:17;95101.03;;;28.65;48.63
62697;BME280;48761;42.680;23.312;2023-07-13T05:33:43;95097.34;;;28.25;49.41
62697;BME280;48761;42.680;23.312;2023-07-13T05:36:09;95139.78;;;28.41;49.93
62697;BME280;48761;42.680;23.312;2023-07-13T05:38:35;95092.06;;;28.97;47.66
62697;BME280;48761;42.680;23.312;2023-07-13T05:41:01;95099.56;;;29.15;47.29
62697;BME280;48761;42.680;23.312;2023-07-13T05:43:27;95127.16;;;29.46;46.97
62697;BME280;48761;42.680;23.312;2023-07-13T05:45:55;95136.38;;;29.84;46.20
62697;BME280;48761;42.680;23.312;2023-07-13T05:48:21;95139.13;;;29.84;46.49
62697;BME280;48761;42.680;23.312;2023-07-13T05:50:48;95105.81;;;28.83;47.57
62697;BME280;48761;42.680;23.312;2023-07-13T05:53:14;95137.59;;;28.78;48.34
62697;BME280;48761;42.680;23.312;2023-07-13T05:55:44;95142.75;;;30.04;46.11
62697;BME280;48761;42.680;23.312;2023-07-13T05:58:11;95137.56;;;30.21;45.23
62697;BME280;48761;42.680;23.312;2023-07-13T06:00:37;95133.44;;;30.30;44.91
62697;BME280;48761;42.680;23.312;2023-07-13T06:03:03;95122.31;;;30.25;45.05
62697;BME280;48761;42.680;23.312;2023-07-13T06:05:29;95118.41;;;30.40;44.65
62697;BME280;48761;42.680;23.312;2023-07-13T06:07:57;95094.78;;;28.44;48.06
62697;BME280;48761;42.680;23.312;2023-07-13T06:10:23;95124.84;;;29.04;47.62
62697;BME280;48761;42.680;23.312;2023-07-13T06:12:49;95117.31;;;29.38;46.78
62697;BME280;48761;42.680;23.312;2023-07-13T06:15:14;95137.56;;;28.84;48.33
62697;BME280;48761;42.680;23.312;2023-07-13T06:17:40;95111.94;;;29.57;45.33
62697;BME280;48761;42.680;23.312;2023-07-13T06:20:07;95138.84;;;30.82;44.18
62697;BME280;48761;42.680;23.312;2023-07-13T06:22:44;95116.88;;;31.01;42.91
62697;BME280;48761;42.680;23.312;2023-07-13T06:25:12;95140.91;;;31.67;41.38
62697;BME280;48761;42.680;23.312;2023-07-13T06:27:38;95136.22;;;31.25;41.85
62697;BME280;48761;42.680;23.312;2023-07-13T06:30:05;95137.91;;;32.36;40.37
62697;BME280;48761;42.680;23.312;2023-07-13T06:32:31;95123.66;;;32.15;39.54
62697;BME280;48761;42.680;23.312;2023-07-13T06:35:01;95135.25;;;31.31;40.80
62697;BME280;48761;42.680;23.312;2023-07-13T06:40:31;95115.31;;;30.10;42.22
62697;BME280;48761;42.680;23.312;2023-07-13T06:48:53;95108.34;;;30.52;41.54
62697;BME280;48761;42.680;23.312;2023-07-13T06:51:36;95091.59;;;30.42;43.06
62697;BME280;48761;42.680;23.312;2023-07-13T06:54:03;95119.34;;;30.34;42.09
62697;BME280;48761;42.680;23.312;2023-07-13T06:56:29;95120.53;;;30.75;41.81
62697;BME280;48761;42.680;23.312;2023-07-13T06:58:55;95109.44;;;31.20;40.92
62697;BME280;48761;42.680;23.312;2023-07-13T07:01:21;95115.34;;;29.46;44.59
62697;BME280;48761;42.680;23.312;2023-07-13T07:03:47;95133.41;;;29.60;44.51
62697;BME280;48761;42.680;23.312;2023-07-13T07:06:16;95132.19;;;30.07;43.72
62697;BME280;48761;42.680;23.312;2023-07-13T07:08:42;95134.84;;;31.15;40.20
62697;BME280;48761;42.680;23.312;2023-07-13T07:11:16;95103.88;;;31.27;40.13
62697;BME280;48761;42.680;23.312;2023-07-13T07:14:35;95133.25;;;31.07;41.80
62697;BME280;48761;42.680;23.312;2023-07-13T07:17:04;95107.69;;;31.57;41.06
62697;BME280;48761;42.680;23.312;2023-07-13T07:19:30;95086.06;;;31.60;39.75
62697;BME280;48761;42.680;23.312;2023-07-13T07:21:59;95132.75;;;32.27;38.91
62697;BME280;48761;42.680;23.312;2023-07-13T07:24:25;95108.22;;;32.02;40.04
62697;BME280;48761;42.680;23.312;2023-07-13T07:26:51;95109.00;;;31.78;40.34
62697;BME280;48761;42.680;23.312;2023-07-13T07:29:17;95101.16;;;31.08;39.85
62697;BME280;48761;42.680;23.312;2023-07-13T07:31:43;95119.19;;;32.02;39.25
62697;BME280;48761;42.680;23.312;2023-07-13T07:34:09;95120.34;;;31.27;41.43
62697;BME280;48761;42.680;23.312;2023-07-13T07:36:35;95109.88;;;31.48;40.25
62697;BME280;48761;42.680;23.312;2023-07-13T07:39:01;95101.69;;;32.92;37.79
62697;BME280;48761;42.680;23.312;2023-07-13T07:41:27;95108.50;;;33.02;38.42
62697;BME280;48761;42.680;23.312;2023-07-13T07:43:53;95101.47;;;32.94;38.12
62697;BME280;48761;42.680;23.312;2023-07-13T07:46:19;95106.50;;;31.76;40.14
62697;BME280;48761;42.680;23.312;2023-07-13T07:48:44;95102.31;;;31.74;39.24
62697;BME280;48761;42.680;23.312;2023-07-13T07:51:10;95097.69;;;31.43;40.67
62697;BME280;48761;42.680;23.312;2023-07-13T07:53:36;95100.81;;;31.04;41.23
62697;BME280;48761;42.680;23.312;2023-07-13T07:56:03;95065.91;;;31.24;40.35
62697;BME280;48761;42.680;23.312;2023-07-13T07:58:28;95097.66;;;31.19;40.33
62697;BME280;48761;42.680;23.312;2023-07-13T08:01:02;95088.53;;;31.07;41.79
62697;BME280;48761;42.680;23.312;2023-07-13T08:03:28;95090.06;;;30.65;41.39
62697;BME280;48761;42.680;23.312;2023-07-13T08:05:54;95071.56;;;31.10;40.49
62697;BME280;48761;42.680;23.312;2023-07-13T08:08:20;95073.19;;;31.30;40.04
62697;BME280;48761;42.680;23.312;2023-07-13T08:10:46;95072.47;;;31.65;39.36
62697;BME280;48761;42.680;23.312;2023-07-13T08:13:12;95054.97;;;31.05;40.26
62697;BME280;48761;42.680;23.312;2023-07-13T08:15:41;95073.19;;;31.73;39.00
62697;BME280;48761;42.680;23.312;2023-07-13T08:18:07;95060.31;;;30.99;40.26
62697;BME280;48761;42.680;23.312;2023-07-13T08:20:32;95043.22;;;31.16;39.76
62697;BME280;48761;42.680;23.312;2023-07-13T08:23:01;95035.81;;;30.67;40.75
62697;BME280;48761;42.680;23.312;2023-07-13T08:25:29;95067.47;;;31.86;39.79
62697;BME280;48761;42.680;23.312;2023-07-13T08:27:55;95065.44;;;31.82;40.75
62697;BME280;48761;42.680;23.312;2023-07-13T08:30:22;95038.44;;;32.03;39.37
62697;BME280;48761;42.680;23.312;2023-07-13T08:32:47;95049.75;;;32.54;38.97
62697;BME280;48761;42.680;23.312;2023-07-13T08:35:13;95055.75;;;32.39;39.31
62697;BME280;48761;42.680;23.312;2023-07-13T08:37:39;95055.16;;;31.89;40.60
62697;BME280;48761;42.680;23.312;2023-07-13T08:40:07;95052.25;;;32.97;38.03
62697;BME280;48761;42.680;23.312;2023-07-13T08:43:00;95026.59;;;33.09;37.54
62697;BME280;48761;42.680;23.312;2023-07-13T08:48:50;95050.28;;;33.74;36.46
62697;BME280;48761;42.680;23.312;2023-07-13T08:51:23;95052.03;;;33.46;37.20
62697;BME280;48761;42.680;23.312;2023-07-13T08:53:54;95053.44;;;32.60;37.62
62697;BME280;48761;42.680;23.312;2023-07-13T08:56:24;95046.63;;;33.51;36.42
62697;BME280;48761;42.680;23.312;2023-07-13T08:59:06;95051.47;;;33.14;36.79
62697;BME280;48761;42.680;23.312;2023-07-13T09:02:15;95045.88;;;34.07;35.32
62697;BME280;48761;42.680;23.312;2023-07-13T09:08:23;95065.22;;;33.61;37.14
62697;BME280;48761;42.680;23.312;2023-07-13T09:16:49;95083.44;;;34.31;35.60
62697;BME280;48761;42.680;23.312;2023-07-13T09:35:38;95079.19;;;35.08;34.67
62697;BME280;48761;42.680;23.312;2023-07-13T09:38:16;95062.63;;;35.08;33.68
62697;BME280;48761;42.680;23.312;2023-07-13T09:44:10;95067.09;;;34.69;35.22
62697;BME280;48761;42.680;23.312;2023-07-13T09:46:37;95073.78;;;35.46;34.51
62697;BME280;48761;42.680;23.312;2023-07-13T09:49:03;95059.00;;;35.35;34.05
62697;BME280;48761;42.680;23.312;2023-07-13T09:51:30;95032.25;;;35.08;33.35
62697;BME280;48761;42.680;23.312;2023-07-13T09:53:56;95037.84;;;35.41;33.89
62697;BME280;48761;42.680;23.312;2023-07-13T09:56:26;95014.25;;;35.33;33.80
62697;BME280;48761;42.680;23.312;2023-07-13T09:58:59;95020.41;;;34.40;35.04
62697;BME280;48761;42.680;23.312;2023-07-13T10:01:37;95017.78;;;34.73;36.14
62697;BME280;48761;42.680;23.312;2023-07-13T10:04:13;95000.59;;;34.03;35.06
62697;BME280;48761;42.680;23.312;2023-07-13T10:06:45;95019.66;;;34.05;35.51
62697;BME280;48761;42.680;23.312;2023-07-13T10:09:17;95028.84;;;33.76;36.27
62697;BME280;48761;42.680;23.312;2023-07-13T10:11:43;95028.22;;;34.08;35.48
62697;BME280;48761;42.680;23.312;2023-07-13T10:14:18;95008.78;;;33.98;36.00
62697;BME280;48761;42.680;23.312;2023-07-13T10:16:49;95021.31;;;34.28;35.38
62697;BME280;48761;42.680;23.312;2023-07-13T10:19:21;94992.34;;;34.26;35.14
62697;BME280;48761;42.680;23.312;2023-07-13T10:22:00;95015.34;;;34.54;34.27
62697;BME280;48761;42.680;23.312;2023-07-13T10:24:29;95015.97;;;34.61;31.95
62697;BME280;48761;42.680;23.312;2023-07-13T10:29:27;95022.63;;;35.38;27.62
62697;BME280;48761;42.680;23.312;2023-07-13T10:31:55;95005.47;;;35.36;27.92
62697;BME280;48761;42.680;23.312;2023-07-13T10:34:21;95006.75;;;35.28;26.70
62697;BME280;48761;42.680;23.312;2023-07-13T10:36:47;94998.41;;;35.51;27.37
62697;BME280;48761;42.680;23.312;2023-07-13T10:39:18;95002.25;;;35.50;26.69
62697;BME280;48761;42.680;23.312;2023-07-13T10:41:48;95000.44;;;35.61;26.28
62697;BME280;48761;42.680;23.312;2023-07-13T10:44:49;94951.31;;;35.35;28.27
62697;BME280;48761;42.680;23.312;2023-07-13T10:47:39;94976.31;;;35.51;27.99
62697;BME280;48761;42.680;23.312;2023-07-13T10:50:28;94967.16;;;35.17;27.28
62697;BME280;48761;42.680;23.312;2023-07-13T10:53:31;94949.19;;;35.42;26.74
62697;BME280;48761;42.680;23.312;2023-07-13T10:56:32;94985.25;;;35.63;26.17
62697;BME280;48761;42.680;23.312;2023-07-13T10:59:25;94926.00;;;35.43;26.06
62697;BME280;48761;42.680;23.312;2023-07-13T11:07:29;94939.28;;;35.47;27.33
62697;BME280;48761;42.680;23.312;2023-07-13T11:10:49;94961.47;;;35.62;26.24
62697;BME280;48761;42.680;23.312;2023-07-13T11:23:44;94943.38;;;35.82;26.21
62697;BME280;48761;42.680;23.312;2023-07-13T11:32:19;94907.28;;;35.56;26.64
62697;BME280;48761;42.680;23.312;2023-07-13T11:37:35;94900.13;;;35.60;27.87
62697;BME280;48761;42.680;23.312;2023-07-13T11:52:57;94905.53;;;35.44;28.36
62697;BME280;48761;42.680;23.312;2023-07-13T11:55:42;94918.88;;;35.53;28.73
62697;BME280;48761;42.680;23.312;2023-07-13T11:59:10;94907.13;;;35.78;28.14
62697;BME280;48761;42.680;23.312;2023-07-13T12:16:20;94857.09;;;35.70;25.74
62697;BME280;48761;42.680;23.312;2023-07-13T12:26:27;94872.97;;;35.95;26.71
62697;BME280;48761;42.680;23.312;2023-07-13T12:37:59;94821.22;;;35.85;26.03
62697;BME280;48761;42.680;23.312;2023-07-13T12:40:37;94849.59;;;36.29;26.13
62697;BME280;48761;42.680;23.312;2023-07-13T12:43:05;94856.50;;;36.32;26.28
62697;BME280;48761;42.680;23.312;2023-07-13T12:45:35;94811.41;;;36.21;26.31
62697;BME280;48761;42.680;23.312;2023-07-13T12:48:24;94821.09;;;36.34;25.80
62697;BME280;48761;42.680;23.312;2023-07-13T12:51:01;94808.03;;;35.98;25.97
62697;BME280;48761;42.680;23.312;2023-07-13T12:53:41;94841.56;;;36.33;25.18
62697;BME280;48761;42.680;23.312;2023-07-13T12:56:18;94822.44;;;36.16;24.83
62697;BME280;48761;42.680;23.312;2023-07-13T13:02:26;94805.31;;;36.14;24.82
62697;BME280;48761;42.680;23.312;2023-07-13T13:05:30;94828.03;;;36.37;24.85
62697;BME280;48761;42.680;23.312;2023-07-13T13:43:41;94804.28;;;36.51;24.49
62697;BME280;48761;42.680;23.312;2023-07-13T13:50:15;94805.66;;;36.49;24.59
62697;BME280;48761;42.680;23.312;2023-07-13T13:52:48;94793.78;;;36.43;24.98
62697;BME280;48761;42.680;23.312;2023-07-13T13:57:52;94769.44;;;36.45;24.72
62697;BME280;48761;42.680;23.312;2023-07-13T14:00:38;94774.16;;;36.60;24.85
62697;BME280;48761;42.680;23.312;2023-07-13T14:03:04;94794.34;;;36.55;25.62
62697;BME280;48761;42.680;23.312;2023-07-13T14:05:31;94779.69;;;36.50;25.41
62697;BME280;48761;42.680;23.312;2023-07-13T14:07:58;94752.22;;;36.11;25.74
62697;BME280;48761;42.680;23.312;2023-07-13T14:10:26;94773.81;;;36.25;25.66
62697;BME280;48761;42.680;23.312;2023-07-13T14:12:59;94797.66;;;36.47;26.07
62697;BME280;48761;42.680;23.312;2023-07-13T14:16:00;94767.72;;;36.28;26.19
62697;BME280;48761;42.680;23.312;2023-07-13T14:18:30;94778.84;;;36.49;25.18
62697;BME280;48761;42.680;23.312;2023-07-13T14:21:02;94763.31;;;36.32;25.33
62697;BME280;48761;42.680;23.312;2023-07-13T14:23:36;94791.00;;;36.69;25.41
62697;BME280;48761;42.680;23.312;2023-07-13T14:26:23;94755.59;;;36.40;26.00
62697;BME280;48761;42.680;23.312;2023-07-13T14:28:57;94751.69;;;36.20;25.35
62697;BME280;48761;42.680;23.312;2023-07-13T14:31:26;94750.00;;;36.14;25.31
62697;BME280;48761;42.680;23.312;2023-07-13T14:36:31;94798.75;;;36.41;26.25
62697;BME280;48761;42.680;23.312;2023-07-13T14:39:17;94778.22;;;36.21;26.06
62697;BME280;48761;42.680;23.312;2023-07-13T14:41:50;94742.25;;;36.10;26.53
62697;BME280;48761;42.680;23.312;2023-07-13T14:44:28;94766.31;;;36.20;26.94
62697;BME280;48761;42.680;23.312;2023-07-13T14:46:55;94790.41;;;36.36;26.75
62697;BME280;48761;42.680;23.312;2023-07-13T14:54:59;94761.63;;;36.21;27.10
62697;BME280;48761;42.680;23.312;2023-07-13T14:57:25;94774.91;;;36.29;27.57
62697;BME280;48761;42.680;23.312;2023-07-13T14:59:51;94776.59;;;36.41;27.21
62697;BME280;48761;42.680;23.312;2023-07-13T15:02:29;94777.69;;;36.34;27.73
62697;BME280;48761;42.680;23.312;2023-07-13T15:04:57;94769.09;;;36.26;27.97
62697;BME280;48761;42.680;23.312;2023-07-13T15:07:23;94771.28;;;36.13;28.37
62697;BME280;48761;42.680;23.312;2023-07-13T15:09:50;94771.56;;;36.06;28.24
62697;BME280;48761;42.680;23.312;2023-07-13T15:12:16;94777.09;;;36.06;28.24
62697;BME280;48761;42.680;23.312;2023-07-13T15:14:42;94775.16;;;36.07;28.07
62697;BME280;48761;42.680;23.312;2023-07-13T15:17:26;94776.81;;;36.13;28.22
62697;BME280;48761;42.680;23.312;2023-07-13T15:19:53;94778.19;;;36.05;27.93
62697;BME280;48761;42.680;23.312;2023-07-13T15:22:19;94774.31;;;36.01;27.58
62697;BME280;48761;42.680;23.312;2023-07-13T15:24:49;94779.28;;;35.94;27.65
62697;BME280;48761;42.680;23.312;2023-07-13T15:27:15;94775.41;;;35.95;27.96
62697;BME280;48761;42.680;23.312;2023-07-13T15:29:40;94759.41;;;36.02;27.51
62697;BME280;48761;42.680;23.312;2023-07-13T15:32:11;94764.91;;;35.92;27.55
62697;BME280;48761;42.680;23.312;2023-07-13T15:34:38;94768.78;;;36.01;27.92
62697;BME280;48761;42.680;23.312;2023-07-13T15:37:11;94756.00;;;35.79;28.13
62697;BME280;48761;42.680;23.312;2023-07-13T15:39:38;94764.91;;;35.92;28.23
62697;BME280;48761;42.680;23.312;2023-07-13T15:42:04;94778.09;;;35.79;28.97
62697;BME280;48761;42.680;23.312;2023-07-13T15:44:31;94770.13;;;35.88;28.11
62697;BME280;48761;42.680;23.312;2023-07-13T15:46:58;94760.38;;;35.75;28.70
62697;BME280;48761;42.680;23.312;2023-07-13T15:49:24;94780.84;;;35.74;28.77
62697;BME280;48761;42.680;23.312;2023-07-13T15:51:50;94767.56;;;35.76;29.16
62697;BME280;48761;42.680;23.312;2023-07-13T15:54:18;94779.75;;;35.80;28.82
62697;BME280;48761;42.680;23.312;2023-07-13T15:56:50;94776.16;;;35.80;29.00
62697;BME280;48761;42.680;23.312;2023-07-13T15:59:17;94775.34;;;35.84;28.68
62697;BME280;48761;42.680;23.312;2023-07-13T16:01:43;94776.78;;;35.92;29.14
62697;BME280;48761;42.680;23.312;2023-07-13T16:04:09;94769.16;;;35.56;29.15
62697;BME280;48761;42.680;23.312;2023-07-13T16:06:36;94767.50;;;35.55;29.57
62697;BME280;48761;42.680;23.312;2023-07-13T16:09:03;94773.38;;;35.69;29.59
62697;BME280;48761;42.680;23.312;2023-07-13T16:11:35;94774.19;;;35.64;29.61
62697;BME280;48761;42.680;23.312;2023-07-13T16:14:02;94770.28;;;35.60;29.65
62697;BME280;48761;42.680;23.312;2023-07-13T16:16:32;94766.69;;;35.54;30.69
62697;BME280;48761;42.680;23.312;2023-07-13T16:19:01;94766.94;;;35.53;30.35
62697;BME280;48761;42.680;23.312;2023-07-13T16:21:31;94763.84;;;35.39;30.48
62697;BME280;48761;42.680;23.312;2023-07-13T16:23:58;94772.06;;;35.33;30.58